Time;durP1;ratioP1;P1;durP2;ratioP2;P2;SDS_P1;SDS_P2;PMS_P1;PMS_P2;Temp;Humidity;BMP_temperature;BMP_pressure;BME280_temperature;BME280_humidity;BME280_pressure;Samples;Min_cycle;Max_cycle;Signal;HPM_P1;HPM_P2
2022/04/07 00:01:13;;;;;;;4.10;2.38;;;10.30;99.90;;;;;;5075496;28;20020;-86
2022/04/07 00:03:43;;;;;;;5.15;2.60;;;;;;;;;;5086510;28;20369;-84
2022/04/07 00:06:15;;;;;;;7.10;2.92;;;10.30;99.90;;;;;;5082103;28;20028;-85
2022/04/07 00:08:41;;;;;;;4.40;2.88;;;10.30;99.90;;;;;;5069681;28;20025;-85
2022/04/07 00:11:13;;;;;;;5.13;2.65;;;10.20;99.90;;;;;;5091621;28;20078;-84
2022/04/07 00:13:39;;;;;;;5.75;2.58;;;10.20;99.90;;;;;;5072721;28;20043;-86
2022/04/07 00:16:05;;;;;;;5.63;2.67;;;10.10;99.90;;;;;;5086827;28;20025;-87
2022/04/07 00:18:31;;;;;;;5.82;3.38;;;;;;;;;;5090907;28;20654;-85
2022/04/07 00:20:57;;;;;;;6.05;3.20;;;10.00;99.90;;;;;;5073707;28;20043;-86
2022/04/07 00:23:23;;;;;;;5.55;3.50;;;;;;;;;;5074271;28;20468;-86
2022/04/07 00:25:50;;;;;;;5.35;3.20;;;;;;;;;;5074933;28;20031;-84
2022/04/07 00:28:16;;;;;;;5.13;2.95;;;;;;;;;;5092629;28;20020;-88
2022/04/07 00:30:43;;;;;;;6.30;3.22;;;;;;;;;;5067081;28;20545;-87
2022/04/07 00:33:10;;;;;;;7.28;4.53;;;9.80;99.90;;;;;;5074037;28;20032;-89
2022/04/07 00:35:39;;;;;;;6.25;3.60;;;9.70;99.90;;;;;;5072360;28;20036;-86
2022/04/07 00:38:05;;;;;;;6.53;3.80;;;;;;;;;;5073927;28;20032;-89
2022/04/07 00:40:31;;;;;;;7.82;4.03;;;;;;;;;;5068643;28;20033;-87
2022/04/07 00:42:58;;;;;;;8.27;3.65;;;;;;;;;;5054196;28;20782;-85
2022/04/07 00:45:24;;;;;;;4.95;3.40;;;9.80;99.90;;;;;;5072698;28;20021;-90
2022/04/07 00:47:51;;;;;;;8.77;3.88;;;9.80;99.90;;;;;;5088923;28;20028;-87
2022/04/07 00:50:18;;;;;;;6.65;3.35;;;9.80;99.90;;;;;;5088202;28;20206;-87
2022/04/07 00:52:46;;;;;;;7.75;3.67;;;9.80;99.90;;;;;;5080152;28;20024;-84
2022/04/07 00:55:13;;;;;;;7.80;3.80;;;9.80;99.90;;;;;;5072660;28;20120;-86
2022/04/07 00:57:43;;;;;;;6.53;3.78;;;9.80;99.90;;;;;;5080953;28;20028;-84
2022/04/07 01:00:10;;;;;;;;;;;9.80;99.90;;;;;;5074822;28;20024;-86
2022/04/07 01:02:37;;;;;;;4.78;3.20;;;;;;;;;;5094418;28;19936;-85
2022/04/07 01:05:10;;;;;;;5.25;3.45;;;9.80;99.90;;;;;;5078386;28;20052;-84
2022/04/07 01:07:37;;;;;;;7.10;3.33;;;9.80;99.90;;;;;;5090234;28;20111;-84
2022/04/07 01:10:08;;;;;;;5.63;3.55;;;9.70;99.90;;;;;;5090457;28;20115;-84
2022/04/07 01:12:34;;;;;;;8.52;3.10;;;9.80;99.90;;;;;;5077772;28;20094;-85
2022/04/07 01:15:04;;;;;;;5.10;3.03;;;9.80;99.90;;;;;;5096063;28;20024;-87
2022/04/07 01:17:30;;;;;;;4.78;3.00;;;9.90;99.90;;;;;;5079820;28;20028;-87
2022/04/07 01:19:56;;;;;;;7.43;2.95;;;9.90;99.90;;;;;;5094568;28;20041;-86
2022/04/07 01:22:22;;;;;;;5.38;3.35;;;10.00;99.90;;;;;;5085530;28;20100;-82
2022/04/07 01:24:48;;;;;;;4.43;2.63;;;9.90;99.90;;;;;;5110181;28;20028;-80
2022/04/07 01:27:16;;;;;;;5.95;2.95;;;10.00;99.90;;;;;;5097250;28;20023;-83
2022/04/07 01:29:42;;;;;;;5.40;3.00;;;10.00;99.90;;;;;;5086534;28;20043;-83
2022/04/07 01:32:17;;;;;;;4.75;3.17;;;11.00;99.90;;;;;;5089596;28;20446;-82
2022/04/07 01:34:42;;;;;;;6.85;3.85;;;10.00;99.90;;;;;;5068020;28;20077;-84
2022/04/07 01:37:10;;;;;;;5.65;2.42;;;10.30;99.90;;;;;;5075075;28;20024;-83
2022/04/07 01:39:38;;;;;;;4.47;2.55;;;9.70;99.90;;;;;;5095371;28;20028;-84
2022/04/07 01:42:05;;;;;;;6.28;2.50;;;12.70;99.90;;;;;;5097502;28;20021;-86
2022/04/07 01:44:36;;;;;;;3.78;2.28;;;9.90;99.90;;;;;;5093647;28;20053;-86
2022/04/07 01:47:02;;;;;;;4.72;2.55;;;9.90;99.90;;;;;;5094380;28;20025;-85
2022/04/07 01:49:30;;;;;;;3.83;2.30;;;9.90;99.90;;;;;;5080389;28;20446;-85
2022/04/07 01:51:59;;;;;;;8.20;2.40;;;9.90;99.90;;;;;;5094730;28;20017;-85
2022/04/07 01:54:26;;;;;;;4.88;2.00;;;9.90;99.90;;;;;;5087516;28;20025;-87
2022/04/07 01:56:52;;;;;;;3.60;1.98;;;9.90;99.90;;;;;;5089155;28;20040;-88
2022/04/07 01:59:19;;;;;;;4.50;2.35;;;9.80;99.90;;;;;;5075397;28;20400;-84
2022/04/07 02:01:45;;;;;;;4.22;2.40;;;9.80;99.90;;;;;;5091225;28;20037;-82
2022/04/07 02:04:11;;;;;;;3.03;1.80;;;9.80;99.90;;;;;;5075822;28;20116;-86
2022/04/07 02:06:37;;;;;;;3.65;1.98;;;;;;;;;;5077743;28;20097;-85
2022/04/07 02:09:03;;;;;;;4.28;2.25;;;9.90;99.90;;;;;;5077671;28;20503;-85
2022/04/07 02:11:31;;;;;;;3.65;1.75;;;;;;;;;;5076294;28;20013;-83
2022/04/07 02:13:57;;;;;;;3.90;1.80;;;;;;;;;;5076524;28;20396;-86
2022/04/07 02:16:23;;;;;;;2.67;1.77;;;10.10;99.90;;;;;;5078875;28;20020;-84
2022/04/07 02:18:49;;;;;;;3.95;1.90;;;10.00;99.90;;;;;;5090490;28;20029;-85
2022/04/07 02:21:15;;;;;;;3.45;1.50;;;;;;;;;;5076935;28;20085;-84
2022/04/07 02:23:43;;;;;;;2.40;1.48;;;10.00;99.90;;;;;;5073846;28;20120;-86
2022/04/07 02:26:13;;;;;;;3.78;1.88;;;10.20;99.90;;;;;;5074878;28;20035;-86
2022/04/07 02:28:40;;;;;;;3.35;1.55;;;10.10;99.90;;;;;;5092459;28;20079;-88
2022/04/07 02:31:06;;;;;;;4.30;1.63;;;10.20;99.90;;;;;;5075024;28;20504;-83
2022/04/07 02:33:34;;;;;;;5.32;2.60;;;;;;;;;;5075601;28;20259;-83
2022/04/07 02:36:03;;;;;;;2.53;1.30;;;;;;;;;;5087011;28;20480;-83
2022/04/07 02:38:29;;;;;;;4.13;1.60;;;10.00;99.90;;;;;;5090411;28;20119;-84
2022/04/07 02:40:55;;;;;;;3.10;1.40;;;;;;;;;;5076784;28;20498;-85
2022/04/07 02:43:21;;;;;;;2.22;1.40;;;10.10;99.90;;;;;;5091023;28;20111;-87
2022/04/07 02:45:46;;;;;;;4.28;1.55;;;10.00;99.90;;;;;;5091458;28;20055;-85
2022/04/07 02:48:12;;;;;;;2.17;1.60;;;10.10;99.90;;;;;;5074285;28;20035;-86
2022/04/07 02:50:38;;;;;;;2.60;1.20;;;;;;;;;;5075719;28;20105;-83
2022/04/07 02:53:04;;;;;;;3.28;1.40;;;;;;;;;;5071314;28;20028;-85
2022/04/07 02:55:30;;;;;;;2.75;1.20;;;;;;;;;;5091970;28;20097;-85
2022/04/07 02:57:59;;;;;;;2.15;1.42;;;10.20;99.90;;;;;;5091163;28;20021;-87
2022/04/07 03:00:25;;;;;;;2.55;1.23;;;10.10;99.90;;;;;;5088632;28;20086;-86
2022/04/07 03:02:52;;;;;;;3.42;1.50;;;;;;;;;;5073708;28;20024;-87
2022/04/07 03:05:18;;;;;;;2.65;1.25;;;;;;;;;;5088936;28;20043;-85
2022/04/07 03:07:43;;;;;;;2.00;1.23;;;10.10;99.90;;;;;;5086165;28;20131;-84
2022/04/07 03:10:10;;;;;;;1.83;1.08;;;10.10;99.90;;;;;;5076480;28;20079;-86
2022/04/07 03:12:37;;;;;;;3.05;1.00;;;10.20;99.90;;;;;;5076264;28;20080;-85
2022/04/07 03:15:04;;;;;;;1.50;1.10;;;10.30;99.90;;;;;;5072035;28;20436;-83
2022/04/07 03:17:30;;;;;;;3.38;1.10;;;10.20;99.90;;;;;;5077013;28;20581;-84
2022/04/07 03:19:55;;;;;;;2.30;1.45;;;10.10;99.90;;;;;;5088341;28;20056;-85
2022/04/07 03:22:22;;;;;;;2.28;1.15;;;;;;;;;;5071165;28;20033;-87
2022/04/07 03:24:48;;;;;;;1.45;1.10;;;;;;;;;;5074106;28;20037;-83
2022/04/07 03:27:13;;;;;;;2.25;1.17;;;9.90;99.90;;;;;;5067131;28;20032;-86
2022/04/07 03:29:39;;;;;;;1.88;1.35;;;9.90;99.90;;;;;;5067813;28;20016;-85
2022/04/07 03:32:06;;;;;;;1.17;0.93;;;9.90;99.90;;;;;;5069887;28;20055;-86
2022/04/07 03:34:33;;;;;;;1.60;0.90;;;9.80;99.90;;;;;;5078464;28;20025;-86
2022/04/07 03:37:00;;;;;;;3.15;1.00;;;9.90;99.90;;;;;;5067089;28;20028;-83
2022/04/07 03:39:26;;;;;;;1.00;0.80;;;;;;;;;;5073912;28;20029;-84
2022/04/07 03:41:52;;;;;;;2.40;1.10;;;;;;;;;;5088393;28;20120;-87
2022/04/07 03:44:18;;;;;;;1.85;0.90;;;;;;;;;;5069474;28;20032;-84
2022/04/07 03:46:44;;;;;;;1.52;0.95;;;;;;;;;;5086058;28;20074;-84
2022/04/07 03:49:10;;;;;;;1.17;0.82;;;9.90;99.90;;;;;;5069697;28;20055;-83
2022/04/07 03:51:36;;;;;;;2.10;0.80;;;9.70;99.90;;;;;;5086949;28;20024;-82
2022/04/07 03:54:02;;;;;;;0.90;0.70;;;9.70;99.90;;;;;;5085211;28;20086;-85
2022/04/07 03:56:28;;;;;;;1.40;1.00;;;;;;;;;;5067885;28;20039;-84
2022/04/07 03:58:55;;;;;;;1.50;0.90;;;;;;;;;;5088495;28;20029;-84
2022/04/07 04:01:21;;;;;;;2.42;1.30;;;9.60;99.90;;;;;;5069963;28;20027;-84
2022/04/07 04:03:47;;;;;;;3.65;1.23;;;;;;;;;;5070485;28;20024;-84
2022/04/07 04:06:13;;;;;;;1.40;1.10;;;;;;;;;;5085510;28;20115;-85
2022/04/07 04:08:38;;;;;;;2.05;1.20;;;9.80;99.90;;;;;;5069923;28;20029;-85
2022/04/07 04:11:04;;;;;;;1.77;0.93;;;9.80;99.90;;;;;;5074666;28;20020;-85
2022/04/07 04:13:31;;;;;;;1.77;1.15;;;;;;;;;;5069684;28;20074;-81
2022/04/07 04:15:57;;;;;;;2.85;1.10;;;9.80;99.90;;;;;;5073312;28;20028;-85
2022/04/07 04:18:23;;;;;;;1.40;1.08;;;;;;;;;;5065664;28;20033;-87
2022/04/07 04:20:49;;;;;;;1.55;1.00;;;;;;;;;;5070098;28;20481;-86
2022/04/07 04:23:15;;;;;;;2.30;1.15;;;9.80;99.90;;;;;;5070273;28;20552;-85
2022/04/07 04:25:41;;;;;;;3.80;1.10;;;;;;;;;;5088411;28;20056;-81
2022/04/07 04:28:07;;;;;;;2.22;1.20;;;9.80;99.90;;;;;;5076547;28;20021;-84
2022/04/07 04:30:33;;;;;;;1.65;1.10;;;;;;;;;;5093428;28;20021;-87
2022/04/07 04:32:58;;;;;;;2.95;1.05;;;10.00;99.90;;;;;;5092610;28;20025;-86
2022/04/07 04:35:24;;;;;;;4.10;1.30;;;;;;;;;;5073885;28;20036;-88
2022/04/07 04:37:50;;;;;;;1.67;1.02;;;;;;;;;;5079763;28;20039;-84
2022/04/07 04:40:16;;;;;;;3.83;1.52;;;9.90;99.90;;;;;;5093819;28;20021;-86
2022/04/07 04:42:43;;;;;;;3.10;1.23;;;;;;;;;;5108345;28;20052;-88
2022/04/07 04:45:09;;;;;;;3.42;1.27;;;9.90;99.90;;;;;;5114203;28;20058;-86
2022/04/07 04:47:35;;;;;;;3.80;1.35;;;;;;;;;;5109630;28;20017;-87
2022/04/07 04:50:05;;;;;;;2.28;1.20;;;9.90;99.90;;;;;;5096971;28;20013;-87
2022/04/07 04:52:31;;;;;;;2.57;1.20;;;;;;;;;;5091355;28;20092;-85
2022/04/07 04:54:57;;;;;;;1.70;1.00;;;;;;;;;;5085096;28;20029;-85
2022/04/07 04:57:23;;;;;;;2.70;1.27;;;;;;;;;;5080671;28;20028;-86
2022/04/07 04:59:49;;;;;;;3.60;1.58;;;;;;;;;;5077183;28;20198;-86
2022/04/07 05:02:15;;;;;;;2.88;1.50;;;;;;;;;;5088339;28;20031;-84
2022/04/07 05:04:41;;;;;;;3.97;1.80;;;;;;;;;;5074353;28;20111;-84
2022/04/07 05:07:07;;;;;;;3.92;1.73;;;;;;;;;;5094145;28;20028;-85
2022/04/07 05:09:34;;;;;;;3.45;2.10;;;;;;;;;;5076338;28;20028;-84
2022/04/07 05:12:00;;;;;;;2.72;2.10;;;9.90;99.90;;;;;;5077839;28;20028;-82
2022/04/07 05:14:26;;;;;;;3.92;2.08;;;9.80;99.90;;;;;;5079136;28;20043;-84
2022/04/07 05:16:52;;;;;;;3.85;2.00;;;9.70;99.90;;;;;;5096116;28;20017;-85
2022/04/07 05:19:18;;;;;;;4.13;2.28;;;;;;;;;;5099153;28;20028;-88
2022/04/07 05:21:49;;;;;;;5.65;2.88;;;9.50;99.90;;;;;;5090260;28;20028;-85
2022/04/07 05:24:16;;;;;;;;;;;;;;;;;;5114778;28;20024;-87
2022/04/07 05:26:43;;;;;;;3.85;2.30;;;;;;;;;;5100982;28;19908;-85
2022/04/07 05:29:08;;;;;;;3.85;2.25;;;9.50;99.90;;;;;;5103267;28;20009;-88
2022/04/07 05:31:34;;;;;;;3.45;2.30;;;;;;;;;;5094804;28;20037;-87
2022/04/07 05:34:00;;;;;;;4.38;2.40;;;;;;;;;;5107593;28;20029;-84
2022/04/07 05:36:27;;;;;;;4.95;2.80;;;9.40;99.90;;;;;;5096995;28;20020;-86
2022/04/07 05:38:53;;;;;;;4.38;2.55;;;;;;;;;;5104065;28;20047;-86
2022/04/07 05:41:22;;;;;;;3.40;2.45;;;;;;;;;;5095169;28;20527;-86
2022/04/07 05:43:50;;;;;;;6.28;3.03;;;;;;;;;;5097428;28;20044;-83
2022/04/07 05:46:16;;;;;;;4.78;2.70;;;;;;;;;;5087105;28;20012;-84
2022/04/07 05:48:42;;;;;;;3.35;2.30;;;;;;;;;;5098270;28;20024;-84
2022/04/07 05:51:08;;;;;;;5.03;2.85;;;;;;;;;;5096955;28;20039;-85
2022/04/07 05:53:34;;;;;;;3.55;2.75;;;;;;;;;;5082698;28;20025;-83
2022/04/07 05:56:00;;;;;;;3.50;2.40;;;;;;;;;;5077688;28;20469;-85
2022/04/07 05:58:27;;;;;;;5.82;2.60;;;9.50;99.90;;;;;;5074886;28;20108;-84
2022/04/07 06:00:53;;;;;;;5.07;2.65;;;;;;;;;;5063701;28;20032;-87
2022/04/07 06:03:19;;;;;;;4.85;2.35;;;9.50;99.90;;;;;;5066677;28;20029;-84
2022/04/07 06:05:45;;;;;;;3.50;2.00;;;;;;;;;;5082075;28;20524;-85
2022/04/07 06:08:11;;;;;;;3.17;1.77;;;;;;;;;;5061391;28;20021;-85
2022/04/07 06:10:37;;;;;;;4.75;1.90;;;9.50;99.90;;;;;;5062791;28;20029;-86
2022/04/07 06:13:03;;;;;;;2.40;1.90;;;9.60;99.90;;;;;;5069327;28;20032;-86
2022/04/07 06:15:30;;;;;;;3.13;1.85;;;9.60;99.90;;;;;;5072190;28;20025;-85
2022/04/07 06:17:55;;;;;;;2.85;1.55;;;9.50;99.90;;;;;;5073994;28;20036;-87
2022/04/07 06:20:22;;;;;;;1.70;1.20;;;;;;;;;;5070931;28;20020;-84
2022/04/07 06:22:48;;;;;;;2.85;1.40;;;;;;;;;;5086046;28;20020;-83
2022/04/07 06:25:14;;;;;;;2.47;1.20;;;9.60;99.90;;;;;;5069135;28;20040;-83
2022/04/07 06:27:45;;;;;;;3.13;1.23;;;9.70;99.90;;;;;;5070828;28;20032;-83
2022/04/07 06:30:13;;;;;;;2.42;1.10;;;9.70;99.90;;;;;;5070417;28;20029;-84
2022/04/07 06:32:40;;;;;;;2.40;1.20;;;9.70;99.90;;;;;;5075107;28;20029;-82
2022/04/07 06:35:07;;;;;;;2.08;1.10;;;9.70;99.90;;;;;;5086190;28;20044;-85
2022/04/07 06:37:52;;;;;;;2.33;1.55;;;9.70;99.90;;;;;;5108087;28;20070;-84
2022/04/07 06:40:20;;;;;;;1.52;1.00;;;9.70;99.90;;;;;;5089520;28;20028;-86
2022/04/07 06:42:47;;;;;;;2.85;1.40;;;9.70;99.90;;;;;;5087504;28;20021;-84
2022/04/07 06:45:13;;;;;;;1.50;1.10;;;9.80;99.90;;;;;;5090352;28;20029;-85
2022/04/07 06:47:42;;;;;;;2.08;1.30;;;9.70;99.90;;;;;;5075016;28;20029;-85
2022/04/07 06:50:18;;;;;;;2.53;1.30;;;9.70;99.90;;;;;;5088008;28;20477;-82
2022/04/07 06:52:44;;;;;;;2.30;1.20;;;9.70;99.90;;;;;;5089544;28;20078;-80
2022/04/07 06:55:12;;;;;;;1.30;1.10;;;9.70;99.90;;;;;;5075439;28;20062;-85
2022/04/07 06:58:02;;;;;;;1.42;0.80;;;9.70;99.90;;;;;;5068848;28;20040;-85
2022/04/07 07:00:34;;;;;;;1.55;1.00;;;9.80;99.90;;;;;;5034406;28;20508;-83
2022/04/07 07:03:01;;;;;;;2.00;0.90;;;9.80;99.90;;;;;;5070236;28;20229;-84
2022/04/07 07:05:32;;;;;;;1.67;0.90;;;9.80;99.90;;;;;;5069854;28;20120;-83
2022/04/07 07:08:10;;;;;;;1.55;1.10;;;7.80;99.90;;;;;;5076372;28;20098;-85
2022/04/07 07:10:36;;;;;;;1.33;0.93;;;9.80;99.90;;;;;;5088945;28;20035;-88
2022/04/07 07:13:02;;;;;;;1.67;1.00;;;;;;;;;;5068020;28;20028;-88
2022/04/07 07:15:28;;;;;;;1.95;0.93;;;;;;;;;;5070303;28;20028;-84
2022/04/07 07:17:54;;;;;;;1.67;1.00;;;;;;;;;;5086023;28;20035;-83
2022/04/07 07:20:20;;;;;;;0.80;0.68;;;;;;;;;;5071254;28;20258;-86
2022/04/07 07:22:47;;;;;;;1.40;0.80;;;;;;;;;;5089489;28;20438;-84
2022/04/07 07:25:26;;;;;;;3.35;1.30;;;9.80;99.90;;;;;;5072137;28;20032;-83
2022/04/07 07:27:52;;;;;;;1.38;0.70;;;;;;;;;;5080337;28;20389;-86
2022/04/07 07:30:18;;;;;;;2.03;1.02;;;;;;;;;;5074339;28;20492;-83
2022/04/07 07:32:51;;;;;;;2.35;0.73;;;9.90;99.90;;;;;;5074907;28;20036;-87
2022/04/07 07:35:27;;;;;;;1.27;0.85;;;9.90;99.90;;;;;;5090420;28;20027;-89
2022/04/07 07:37:58;;;;;;;1.80;0.80;;;9.90;99.90;;;;;;5079401;28;20473;-86
2022/04/07 07:40:52;;;;;;;1.83;1.00;;;;;;;;;;5089131;28;20378;-85
2022/04/07 07:43:35;;;;;;;1.95;0.80;;;9.90;99.90;;;;;;5085150;28;20111;-86
2022/04/07 07:46:02;;;;;;;1.08;0.80;;;9.90;99.90;;;;;;5088759;28;20017;-84
2022/04/07 07:48:28;;;;;;;1.00;0.68;;;;;;;;;;5074936;28;20031;-88
2022/04/07 07:51:05;;;;;;;1.05;0.80;;;10.00;99.90;;;;;;5078290;28;20050;-85
2022/04/07 07:53:47;;;;;;;0.68;0.68;;;;;;;;;;5076336;28;20385;-81
2022/04/07 07:56:16;;;;;;;2.20;0.90;;;;;;;;;;5069875;28;20497;-87
2022/04/07 07:59:06;;;;;;;1.23;0.60;;;10.10;99.90;;;;;;5092976;28;20515;-82
2022/04/07 08:04:20;;;;;;;0.82;0.70;;;10.10;99.90;;;;;;5122548;22;20528;-89
2022/04/07 08:06:54;;;;;;;1.80;0.70;;;10.00;99.90;;;;;;5072157;28;20045;-85
2022/04/07 08:09:26;;;;;;;1.67;0.90;;;10.00;99.90;;;;;;5073094;28;20021;-84
2022/04/07 08:11:54;;;;;;;1.88;0.80;;;10.10;99.90;;;;;;5058671;28;20032;-84
2022/04/07 08:14:40;;;;;;;1.25;0.82;;;10.10;99.90;;;;;;5061017;28;20082;-82
2022/04/07 08:17:10;;;;;;;0.90;0.70;;;;;;;;;;5061194;28;20037;-83
2022/04/07 08:19:50;;;;;;;1.00;0.82;;;10.20;99.90;;;;;;5087280;28;20511;-85
2022/04/07 08:22:17;;;;;;;1.00;0.70;;;10.30;99.90;;;;;;5056492;28;20103;-86
2022/04/07 08:24:53;;;;;;;1.38;0.85;;;10.30;99.90;;;;;;5037314;28;20055;-84
2022/04/07 08:27:28;;;;;;;2.80;1.00;;;10.30;99.90;;;;;;5079770;28;20035;-85
2022/04/07 08:29:54;;;;;;;5.50;2.90;;;;;;;;;;5079590;28;20074;-86
2022/04/07 08:32:31;;;;;;;2.55;1.35;;;;;;;;;;5074384;28;20021;-86
2022/04/07 08:35:06;;;;;;;1.70;0.82;;;10.40;99.90;;;;;;5062604;28;20020;-84
2022/04/07 08:37:32;;;;;;;1.85;0.98;;;;;;;;;;5059694;28;20173;-84
2022/04/07 08:40:06;;;;;;;2.22;0.90;;;10.50;99.90;;;;;;5062389;28;20163;-85
2022/04/07 08:42:34;;;;;;;3.05;1.05;;;10.50;99.90;;;;;;5061276;28;20399;-85
2022/04/07 08:45:00;;;;;;;2.65;0.90;;;;;;;;;;5060079;28;20035;-80
2022/04/07 08:47:26;;;;;;;4.85;2.10;;;;;;;;;;5075820;28;20021;-84
2022/04/07 08:49:53;;;;;;;2.30;1.40;;;10.50;99.90;;;;;;5066984;28;20055;-86
2022/04/07 08:52:19;;;;;;;4.28;1.20;;;;;;;;;;5059949;28;20079;-85
2022/04/07 08:54:47;;;;;;;1.70;1.08;;;10.50;99.90;;;;;;5057191;28;20392;-84
2022/04/07 08:57:14;;;;;;;2.25;1.20;;;10.50;99.90;;;;;;5061001;28;20025;-83
2022/04/07 08:59:41;;;;;;;3.92;1.23;;;10.50;99.90;;;;;;5079805;28;20031;-85
2022/04/07 09:02:09;;;;;;;2.38;1.60;;;10.40;99.90;;;;;;5060024;28;20385;-88
2022/04/07 09:04:42;;;;;;;2.78;1.15;;;10.50;99.90;;;;;;5079452;28;20029;-85
2022/04/07 09:07:22;;;;;;;2.45;1.55;;;10.50;99.90;;;;;;5057829;28;20029;-83
2022/04/07 09:09:59;;;;;;;2.20;1.25;;;10.50;99.90;;;;;;5064625;28;20069;-85
2022/04/07 09:12:29;;;;;;;2.75;1.10;;;10.50;99.90;;;;;;5078751;28;20028;-84
2022/04/07 09:14:59;;;;;;;;;;;11.20;99.90;;;;;;5060215;28;20028;-84
2022/04/07 09:17:26;;;;;;;2.60;1.30;;;;;;;;;;5076974;28;19917;-84
2022/04/07 09:20:24;;;;;;;2.00;0.90;;;10.40;99.90;;;;;;5077784;28;20074;-85
2022/04/07 09:23:01;;;;;;;3.17;1.40;;;10.40;99.90;;;;;;5046239;28;20037;-86
2022/04/07 09:25:29;;;;;;;3.58;1.50;;;10.50;99.90;;;;;;5038903;28;20071;-84
2022/04/07 09:27:57;;;;;;;2.08;1.33;;;10.50;99.90;;;;;;5060105;28;20031;-86
2022/04/07 09:30:43;;;;;;;3.03;1.58;;;10.50;99.90;;;;;;5059571;28;20021;-85
2022/04/07 09:33:23;;;;;;;2.33;1.10;;;10.50;99.90;;;;;;5041005;28;20082;-83
2022/04/07 09:36:21;;;;;;;1.73;1.00;;;10.60;99.90;;;;;;5076568;28;20021;-83
2022/04/07 09:38:58;;;;;;;2.10;1.23;;;;;;;;;;5059103;28;20124;-86
2022/04/07 09:41:32;;;;;;;4.28;2.38;;;10.60;99.90;;;;;;5079097;28;20020;-84
2022/04/07 09:43:59;;;;;;;2.15;1.13;;;10.70;99.90;;;;;;5061159;28;20052;-86
2022/04/07 09:46:34;;;;;;;1.70;1.10;;;10.70;99.90;;;;;;5079670;28;20029;-84
2022/04/07 09:49:04;;;;;;;3.30;1.30;;;10.80;99.90;;;;;;5063068;28;20151;-83
2022/04/07 09:51:36;;;;;;;2.92;1.20;;;10.80;99.90;;;;;;5055754;28;20051;-83
2022/04/07 09:54:03;;;;;;;2.33;1.30;;;11.00;99.90;;;;;;5059908;28;20033;-82
2022/04/07 09:56:29;;;;;;;1.70;1.40;;;11.00;99.90;;;;;;5077063;28;20043;-83
2022/04/07 09:58:56;;;;;;;3.22;1.63;;;10.90;99.90;;;;;;5076723;28;20032;-87
2022/04/07 10:01:23;;;;;;;1.00;0.90;;;10.90;99.90;;;;;;5083940;28;20050;-85
2022/04/07 10:03:52;;;;;;;2.65;1.10;;;11.00;99.90;;;;;;5080607;28;20088;-85
2022/04/07 10:06:20;;;;;;;1.90;1.27;;;11.00;99.90;;;;;;5078184;28;20021;-84
2022/04/07 10:08:50;;;;;;;1.67;1.00;;;11.10;99.90;;;;;;5055148;28;20051;-88
2022/04/07 10:11:19;;;;;;;1.67;0.90;;;11.10;99.90;;;;;;5072140;28;20120;-87
2022/04/07 10:13:46;;;;;;;1.83;1.30;;;11.20;99.90;;;;;;5061018;28;20032;-87
2022/04/07 10:16:18;;;;;;;2.67;1.38;;;11.20;99.90;;;;;;5063327;28;20100;-86
2022/04/07 10:19:01;;;;;;;1.90;1.10;;;11.10;99.90;;;;;;5056428;28;20040;-89
2022/04/07 10:21:51;;;;;;;1.77;1.00;;;11.10;99.90;;;;;;5061099;28;20048;-84
2022/04/07 10:24:17;;;;;;;1.45;1.10;;;;;;;;;;5076661;28;20047;-81
2022/04/07 10:26:46;;;;;;;1.58;1.00;;;11.30;99.90;;;;;;5062221;28;20055;-87
2022/04/07 10:29:23;;;;;;;2.63;1.00;;;11.30;99.90;;;;;;5062775;28;20036;-83
2022/04/07 10:32:11;;;;;;;1.70;1.25;;;11.30;99.90;;;;;;5058767;28;20059;-86
2022/04/07 10:34:52;;;;;;;1.52;1.00;;;11.50;99.90;;;;;;5059772;28;20040;-86
2022/04/07 10:37:45;;;;;;;1.40;0.82;;;11.50;99.90;;;;;;5042537;28;20039;-85
2022/04/07 10:40:33;;;;;;;1.55;1.05;;;11.50;99.90;;;;;;5075659;28;20063;-82
2022/04/07 10:43:13;;;;;;;1.83;1.15;;;11.60;99.90;;;;;;5074639;28;20021;-83
2022/04/07 10:45:45;;;;;;;1.52;1.10;;;11.50;99.90;;;;;;5059174;28;20028;-85
2022/04/07 10:48:25;;;;;;;2.08;1.02;;;11.60;99.90;;;;;;5078465;28;20032;-84
2022/04/07 10:51:04;;;;;;;1.50;0.88;;;11.60;99.90;;;;;;5067234;28;20083;-84
2022/04/07 10:53:38;;;;;;;1.52;1.20;;;11.70;99.90;;;;;;5075228;28;20444;-86
2022/04/07 10:56:31;;;;;;;2.58;1.70;;;11.80;99.90;;;;;;5060322;28;20060;-87
2022/04/07 10:59:11;;;;;;;2.45;0.88;;;11.80;99.90;;;;;;5054880;28;20078;-84
2022/04/07 11:01:38;;;;;;;3.67;2.38;;;11.80;99.90;;;;;;5094910;28;20019;-88
2022/04/07 11:04:25;;;;;;;1.08;0.90;;;;;;;;;;5078003;28;20032;-85
2022/04/07 11:07:28;;;;;;;1.00;0.90;;;11.80;99.90;;;;;;5095200;28;20035;-87
2022/04/07 11:10:16;;;;;;;1.00;0.85;;;11.80;99.90;;;;;;5098870;28;20020;-87
2022/04/07 11:13:07;;;;;;;2.70;1.30;;;11.90;99.90;;;;;;5066315;28;20036;-85
2022/04/07 11:15:38;;;;;;;1.80;1.30;;;;;;;;;;5063098;28;20036;-86
2022/04/07 11:18:28;;;;;;;3.67;2.22;;;;;;;;;;5079593;28;20021;-83
2022/04/07 11:21:03;;;;;;;5.70;2.88;;;;;;;;;;5068128;28;20036;-85
2022/04/07 11:23:49;;;;;;;2.10;1.10;;;;;;;;;;5066719;28;20063;-86
2022/04/07 11:26:26;;;;;;;1.77;1.10;;;12.00;99.90;;;;;;5080844;28;20024;-86
2022/04/07 11:29:02;;;;;;;2.58;1.30;;;;;;;;;;5029074;28;20217;-83
2022/04/07 11:35:49;;;;;;;3.10;1.60;;;12.20;99.90;;;;;;5001997;28;20510;-87
2022/04/07 11:43:10;;;;;;;1.75;1.05;;;12.30;99.90;;;;;;5047754;28;20068;-89
2022/04/07 11:48:57;;;;;;;1.38;1.10;;;12.30;99.90;;;;;;5037645;28;20103;-87
2022/04/07 11:51:28;;;;;;;1.10;0.95;;;12.40;99.90;;;;;;5037816;28;20486;-88
2022/04/07 11:53:57;;;;;;;0.95;0.70;;;12.50;99.90;;;;;;5038213;28;20035;-83
2022/04/07 11:56:31;;;;;;;3.03;0.90;;;12.50;99.90;;;;;;5045015;28;20025;-84
2022/04/07 11:59:06;;;;;;;1.63;1.00;;;12.40;99.90;;;;;;5020075;28;20048;-87
2022/04/07 12:01:35;;;;;;;1.10;0.88;;;12.50;99.90;;;;;;5042129;28;20562;-87
2022/04/07 12:04:03;;;;;;;3.75;1.65;;;12.60;99.90;;;;;;5041886;28;20106;-88
2022/04/07 12:06:34;;;;;;;2.08;0.70;;;12.50;99.90;;;;;;5033519;28;20100;-88
2022/04/07 12:09:03;;;;;;;1.42;0.88;;;12.60;99.90;;;;;;5052971;28;20052;-87
2022/04/07 12:11:34;;;;;;;1.00;0.80;;;12.60;99.90;;;;;;5052978;28;20093;-90
2022/04/07 12:14:10;;;;;;;1.40;0.90;;;12.70;99.90;;;;;;5030587;28;20036;-88
2022/04/07 12:16:47;;;;;;;1.10;0.75;;;12.70;99.90;;;;;;5052080;28;20037;-88
2022/04/07 12:19:14;;;;;;;0.90;0.68;;;;;;;;;;5056474;28;20033;-89
2022/04/07 12:22:02;;;;;;;2.95;1.50;;;12.70;99.90;;;;;;5045361;28;20064;-89
2022/04/07 12:24:28;;;;;;;4.07;1.65;;;12.80;99.90;;;;;;5034490;28;20182;-89
2022/04/07 12:26:56;;;;;;;1.88;0.70;;;12.70;99.90;;;;;;5028860;28;20033;-90
2022/04/07 12:29:24;;;;;;;0.98;0.50;;;12.70;99.90;;;;;;5034997;28;20025;-86
2022/04/07 12:32:00;;;;;;;0.80;0.52;;;;;;;;;;5028607;28;20125;-87
2022/04/07 12:34:26;;;;;;;0.88;0.60;;;;;;;;;;5040023;28;20701;-88
2022/04/07 12:36:52;;;;;;;0.88;0.60;;;;;;;;;;5046923;28;20029;-90
2022/04/07 12:39:20;;;;;;;1.42;0.60;;;;;;;;;;5043646;28;20465;-90
2022/04/07 12:41:50;;;;;;;2.25;0.95;;;12.60;99.90;;;;;;5027033;28;20113;-89
2022/04/07 12:44:22;;;;;;;;;;;12.60;99.90;;;;;;5043771;28;20025;-86
2022/04/07 12:46:53;;;;;;;2.15;0.68;;;12.70;99.90;;;;;;5029515;28;19932;-89
2022/04/07 12:49:24;;;;;;;0.70;0.52;;;12.70;99.90;;;;;;5047790;28;20032;-88
2022/04/07 12:55:15;;;;;;;1.25;0.90;;;12.60;99.90;;;;;;4985015;28;20518;-87
2022/04/07 12:57:46;;;;;;;2.80;1.15;;;12.60;99.90;;;;;;5038709;28;20029;-89
2022/04/07 13:00:18;;;;;;;2.13;0.90;;;12.60;99.90;;;;;;5040485;28;20042;-90
2022/04/07 13:02:50;;;;;;;1.52;0.80;;;12.60;99.90;;;;;;5060229;28;20061;-87
2022/04/07 13:05:26;;;;;;;2.20;0.80;;;12.60;99.90;;;;;;5056847;28;20041;-87
2022/04/07 13:07:53;;;;;;;1.38;0.77;;;12.50;99.90;;;;;;5059375;28;20021;-86
2022/04/07 13:10:19;;;;;;;3.03;0.80;;;;;;;;;;5034321;28;20053;-89
2022/04/07 13:12:46;;;;;;;0.93;0.77;;;;;;;;;;5057830;28;20044;-88
2022/04/07 13:15:13;;;;;;;2.25;0.80;;;12.50;99.90;;;;;;5053671;28;20033;-87
2022/04/07 13:17:39;;;;;;;3.47;0.90;;;;;;;;;;5036747;28;20036;-86
2022/04/07 13:20:05;;;;;;;2.08;0.90;;;;;;;;;;5027798;28;20066;-87
2022/04/07 13:22:31;;;;;;;2.30;1.10;;;;;;;;;;5016906;28;20523;-87
2022/04/07 13:24:59;;;;;;;2.85;0.90;;;;;;;;;;5051556;28;20514;-86
2022/04/07 13:27:25;;;;;;;2.17;1.00;;;12.60;99.90;;;;;;5035424;28;20049;-87
2022/04/07 13:29:51;;;;;;;2.10;0.90;;;;;;;;;;5038890;28;20375;-84
2022/04/07 13:32:17;;;;;;;1.35;0.80;;;;;;;;;;5052395;28;20097;-87
2022/04/07 13:34:44;;;;;;;3.90;1.10;;;12.60;99.90;;;;;;5032421;28;20087;-89
2022/04/07 13:37:11;;;;;;;1.60;1.02;;;;;;;;;;5033066;28;20614;-88
2022/04/07 13:39:38;;;;;;;1.20;0.70;;;;;;;;;;5055980;28;20033;-87
2022/04/07 13:42:04;;;;;;;4.80;0.70;;;;;;;;;;5028948;28;20021;-86
2022/04/07 13:44:30;;;;;;;2.63;0.70;;;;;;;;;;5047713;28;20029;-87
2022/04/07 13:46:56;;;;;;;1.17;0.68;;;;;;;;;;5051780;28;20107;-87
2022/04/07 13:49:25;;;;;;;3.25;1.13;;;;;;;;;;5018288;28;20033;-85
2022/04/07 13:51:51;;;;;;;1.45;0.70;;;;;;;;;;5034368;28;20017;-86
2022/04/07 13:54:17;;;;;;;3.10;0.80;;;;;;;;;;5035695;28;20041;-88
2022/04/07 13:56:43;;;;;;;1.00;0.60;;;;;;;;;;5036586;28;20066;-86
2022/04/07 13:59:10;;;;;;;1.67;0.80;;;;;;;;;;5059260;28;20044;-85
2022/04/07 14:01:36;;;;;;;1.77;0.82;;;;;;;;;;5057454;28;20033;-89